Time;durP1;ratioP1;P1;durP2;ratioP2;P2;SDS_P1;SDS_P2;PMS_P1;PMS_P2;Temp;Humidity;BMP_temperature;BMP_pressure;BME280_temperature;BME280_humidity;BME280_pressure;Samples;Min_cycle;Max_cycle;Signal;HPM_P1;HPM_P2
2022/06/22 00:00:00;;;;;;;9.13;3.85;;;;;;;14.60;78.70;101387.63;5072498;28;19916;-36
2022/06/22 00:02:30;;;;;;;7.50;3.88;;;;;;;14.54;79.28;101383.16;5072372;28;20047;-36
2022/06/22 00:05:03;;;;;;;4.93;3.35;;;;;;;14.60;78.99;101384.91;5071913;28;20029;-36
2022/06/22 00:07:36;;;;;;;7.40;4.20;;;;;;;14.48;79.28;101375.94;5072469;28;20358;-36
2022/06/22 00:10:32;;;;;;;6.72;4.00;;;;;;;14.55;78.87;101375.81;5072489;28;20036;-36
2022/06/22 00:13:00;;;;;;;5.22;3.40;;;;;;;14.43;80.12;101378.53;5073757;28;20041;-36
2022/06/22 00:15:42;;;;;;;6.70;3.80;;;;;;;14.43;79.92;101370.38;5075845;28;20028;-36
2022/06/22 00:18:45;;;;;;;9.02;4.10;;;;;;;14.48;79.48;101373.22;5076140;28;20120;-36
2022/06/22 00:21:28;;;;;;;5.18;3.80;;;;;;;14.39;80.41;101355.59;5053482;28;20107;-36
2022/06/22 00:23:59;;;;;;;7.50;4.35;;;;;;;14.37;82.00;101360.47;5053557;28;20033;-36
2022/06/22 00:26:24;;;;;;;5.22;3.78;;;;;;;14.42;82.27;101363.28;5053300;28;20024;-36
2022/06/22 00:28:58;;;;;;;;;;;;;;;14.53;79.30;101353.44;5054116;28;20059;-36
2022/06/22 00:31:30;;;;;;;5.63;4.07;;;;;;;14.35;82.14;101347.13;5053340;28;19915;-36
2022/06/22 00:34:11;;;;;;;7.25;3.63;;;;;;;14.35;81.63;101327.25;5053365;28;20040;-36
2022/06/22 00:36:39;;;;;;;6.53;3.80;;;;;;;14.45;82.47;101351.94;5053446;28;20494;-36
2022/06/22 00:39:16;;;;;;;9.10;4.50;;;;;;;14.32;82.48;101336.72;5052880;28;20028;-36
2022/06/22 00:41:46;;;;;;;7.32;4.22;;;;;;;14.33;83.00;101351.16;5052920;28;20067;-36
2022/06/22 00:44:14;;;;;;;6.60;3.70;;;;;;;14.36;85.06;101351.50;5052837;28;20068;-36
2022/06/22 00:47:05;;;;;;;6.40;4.00;;;;;;;14.40;83.31;101351.84;5052868;28;20124;-36
2022/06/22 00:49:31;;;;;;;8.38;4.47;;;;;;;14.32;85.10;101342.16;5052908;28;20056;-36
2022/06/22 00:52:02;;;;;;;7.43;4.13;;;;;;;14.35;82.97;101341.69;5053460;28;20199;-36
2022/06/22 00:54:30;;;;;;;7.85;4.20;;;;;;;14.31;84.92;101345.13;5052642;28;20367;-36
2022/06/22 00:56:55;;;;;;;8.13;4.45;;;;;;;14.30;84.74;101354.34;5066525;28;20224;-36
2022/06/22 00:59:44;;;;;;;;;;;;;;;14.42;82.06;101357.84;5075322;28;20080;-36
2022/06/22 01:02:40;;;;;;;8.20;4.32;;;;;;;14.35;85.23;101354.47;5075276;28;19920;-36
2022/06/22 01:05:08;;;;;;;6.13;4.30;;;;;;;14.30;85.34;101349.75;5075605;28;20380;-37
2022/06/22 01:07:43;;;;;;;6.22;4.47;;;;;;;14.31;86.28;101351.41;5074898;28;20085;-36
2022/06/22 01:10:18;;;;;;;6.17;4.47;;;;;;;14.21;86.08;101336.78;5074857;28;20036;-36
2022/06/22 01:12:56;;;;;;;7.30;4.25;;;;;;;14.17;85.92;101328.28;5075133;28;20032;-36
2022/06/22 01:15:36;;;;;;;6.35;4.40;;;;;;;14.27;86.36;101354.84;5074848;28;20017;-36
2022/06/22 01:18:09;;;;;;;7.78;4.65;;;;;;;14.29;86.00;101347.25;5074385;28;20031;-36
2022/06/22 01:21:09;;;;;;;6.50;4.22;;;;;;;14.28;85.58;101342.88;5074687;28;20064;-36
2022/06/22 01:23:50;;;;;;;5.97;4.60;;;;;;;14.17;86.55;101333.72;5074262;28;20041;-36
2022/06/22 01:26:48;;;;;;;5.68;4.30;;;;;;;14.22;85.25;101354.75;5075269;28;20089;-36
2022/06/22 01:29:18;;;;;;;8.27;4.13;;;;;;;14.13;86.24;101365.19;5075027;28;20025;-36
2022/06/22 01:31:51;;;;;;;10.10;4.72;;;;;;;14.16;86.04;101373.69;5075168;28;20029;-36
2022/06/22 01:34:17;;;;;;;10.65;5.15;;;;;;;14.16;87.33;101376.41;5074105;28;20448;-36
2022/06/22 01:36:43;;;;;;;8.98;4.78;;;;;;;14.17;87.20;101369.91;5074371;28;20029;-36
2022/06/22 01:39:11;;;;;;;;;;;;;;;14.25;85.07;101359.69;5074453;28;20554;-36
2022/06/22 01:41:43;;;;;;;8.25;5.40;;;;;;;14.11;87.03;101351.84;5074504;28;19908;-36
2022/06/22 01:44:50;;;;;;;7.70;4.47;;;;;;;14.14;86.87;101343.16;5074104;28;20376;-36
2022/06/22 01:47:18;;;;;;;8.32;5.40;;;;;;;13.98;87.75;101324.91;5073850;28;20025;-36
2022/06/22 01:50:01;;;;;;;7.47;4.90;;;;;;;14.00;88.15;101330.94;5074031;28;20031;-36
2022/06/22 01:52:54;;;;;;;6.85;5.03;;;;;;;13.96;88.47;101321.63;5074215;28;20480;-36
2022/06/22 01:55:46;;;;;;;9.35;5.32;;;;;;;13.94;89.15;101317.47;5073618;28;20472;-36
2022/06/22 01:58:35;;;;;;;8.82;5.50;;;;;;;13.92;89.52;101323.19;5074351;28;20024;-36
2022/06/22 02:01:14;;;;;;;8.75;5.28;;;;;;;13.93;89.47;101324.81;5074753;28;20063;-36
2022/06/22 02:03:54;;;;;;;6.15;5.22;;;;;;;13.91;89.01;101321.53;5073974;28;20044;-36
2022/06/22 02:09:15;;;;;;;8.75;5.18;;;;;;;13.93;89.30;101334.88;5073990;28;20047;-36
2022/06/22 02:11:47;;;;;;;9.40;5.63;;;;;;;13.95;89.72;101319.94;5074191;28;20028;-36
2022/06/22 02:14:22;;;;;;;8.05;5.80;;;;;;;13.87;90.02;101317.63;5073633;28;20035;-36
2022/06/22 02:16:53;;;;;;;10.18;5.72;;;;;;;13.85;90.40;101333.34;5074311;28;20025;-36
2022/06/22 02:19:20;;;;;;;8.93;6.30;;;;;;;13.92;90.80;101323.19;5073751;28;20342;-36
2022/06/22 02:21:56;;;;;;;6.25;5.25;;;;;;;13.91;90.72;101325.06;5074012;28;20059;-36
2022/06/22 02:24:35;;;;;;;7.80;5.60;;;;;;;13.87;90.00;101318.47;5073376;28;20120;-36
2022/06/22 02:27:16;;;;;;;7.80;5.95;;;;;;;13.91;90.64;101329.69;5072412;28;20048;-36
2022/06/22 02:29:42;;;;;;;7.22;5.25;;;;;;;13.72;90.68;101318.16;5073607;28;20025;-36
2022/06/22 02:32:14;;;;;;;10.73;5.55;;;;;;;13.74;90.61;101312.47;5072917;28;20041;-36
2022/06/22 02:34:42;;;;;;;7.22;5.30;;;;;;;13.87;91.06;101318.47;5072426;28;20028;-36
2022/06/22 02:37:09;;;;;;;9.30;6.20;;;;;;;13.85;91.50;101306.16;5072747;28;20067;-36
2022/06/22 02:39:41;;;;;;;7.68;5.50;;;;;;;13.79;90.78;101278.06;5073147;28;20039;-36
2022/06/22 02:44:51;;;;;;;6.97;5.65;;;;;;;13.68;90.81;101270.78;5072846;28;20090;-36
2022/06/22 02:47:24;;;;;;;;;;;;;;;13.87;88.72;101285.84;5074317;28;20028;-36
2022/06/22 02:49:55;;;;;;;9.95;5.85;;;;;;;13.60;91.51;101282.84;5072991;28;19913;-36
2022/06/22 02:52:24;;;;;;;7.28;5.68;;;;;;;13.64;91.47;101302.22;5073766;28;20124;-36
2022/06/22 02:54:55;;;;;;;8.43;6.35;;;;;;;13.57;91.83;101306.97;5072684;28;20115;-36
2022/06/22 02:57:39;;;;;;;9.18;5.90;;;;;;;13.62;91.77;101312.50;5073438;28;20033;-36
2022/06/22 03:00:06;;;;;;;10.90;6.30;;;;;;;13.57;91.73;101304.25;5073493;28;20048;-36
2022/06/22 03:02:32;;;;;;;7.38;6.03;;;;;;;13.48;91.17;101309.22;5071612;28;20032;-36
2022/06/22 03:04:59;;;;;;;8.07;6.00;;;;;;;13.55;91.60;101309.91;5072756;28;20038;-36
2022/06/22 03:07:25;;;;;;;9.98;6.70;;;;;;;13.38;92.03;101298.97;5073356;28;20087;-36
2022/06/22 03:09:51;;;;;;;6.72;5.93;;;;;;;13.38;91.09;101311.72;5073444;28;20028;-36
2022/06/22 03:12:17;;;;;;;9.48;6.22;;;;;;;13.37;91.49;101321.75;5073064;28;20028;-36
2022/06/22 03:14:54;;;;;;;;;;;;;;;13.54;89.50;101324.56;5073717;28;20472;-36
2022/06/22 03:17:38;;;;;;;8.77;6.10;;;;;;;13.38;91.46;101323.41;5073002;28;19915;-36
2022/06/22 03:20:11;;;;;;;8.80;7.30;;;;;;;13.35;92.38;101328.47;5072429;28;20059;-36
2022/06/22 03:22:45;;;;;;;10.88;6.43;;;;;;;13.32;92.40;101327.09;5072974;28;20060;-36
2022/06/22 03:25:24;;;;;;;9.68;6.50;;;;;;;13.27;92.17;101318.78;5072768;28;20437;-36
2022/06/22 03:27:54;;;;;;;8.98;6.63;;;;;;;13.23;92.72;101314.09;5073431;28;20028;-36
2022/06/22 03:30:23;;;;;;;9.57;6.97;;;;;;;13.19;92.54;101304.75;5072535;28;20051;-36
2022/06/22 03:32:54;;;;;;;7.07;5.72;;;;;;;13.23;92.60;101300.53;5073016;28;20029;-36
2022/06/22 03:35:48;;;;;;;9.80;6.30;;;;;;;13.30;92.54;101306.63;5072716;28;20403;-36
2022/06/22 03:38:25;;;;;;;7.15;6.25;;;;;;;13.19;92.78;101319.13;5072251;28;20020;-36
2022/06/22 03:40:55;;;;;;;7.60;6.30;;;;;;;13.22;92.76;101302.38;5072582;28;20384;-36
2022/06/22 03:43:49;;;;;;;8.45;6.28;;;;;;;13.20;92.84;101309.91;5073121;28;20415;-36
2022/06/22 03:46:24;;;;;;;8.90;5.85;;;;;;;13.19;92.74;101304.75;5072751;28;20021;-36
2022/06/22 03:49:01;;;;;;;9.75;6.32;;;;;;;13.13;92.63;101301.91;5076144;28;20054;-36
2022/06/22 03:51:31;;;;;;;8.13;5.97;;;;;;;13.14;92.67;101297.28;5076122;28;20051;-36
2022/06/22 03:53:56;;;;;;;8.10;6.65;;;;;;;13.13;93.00;101295.66;5076826;28;20031;-36
2022/06/22 03:56:26;;;;;;;9.30;6.33;;;;;;;13.17;92.96;101294.09;5077099;28;20376;-36
2022/06/22 03:58:53;;;;;;;9.82;6.53;;;;;;;13.05;93.21;101288.69;5076315;28;20036;-36
2022/06/22 04:01:21;;;;;;;8.90;6.65;;;;;;;13.15;93.44;101299.78;5076102;28;20362;-36
2022/06/22 04:03:47;;;;;;;10.77;7.15;;;;;;;13.09;93.43;101295.28;5076096;28;20441;-36
2022/06/22 04:06:32;;;;;;;8.10;7.10;;;;;;;13.13;94.08;101280.19;5075798;28;20116;-36
2022/06/22 04:09:00;;;;;;;9.30;6.18;;;;;;;13.19;94.29;101280.28;5075903;28;20024;-36
2022/06/22 04:11:38;;;;;;;8.30;6.57;;;;;;;13.20;94.15;101277.34;5076684;28;20338;-36
2022/06/22 04:14:15;;;;;;;11.80;7.50;;;;;;;13.21;93.97;101278.97;5075821;28;20028;-36
2022/06/22 04:16:45;;;;;;;8.05;7.15;;;;;;;13.18;95.02;101293.06;5076351;28;20100;-36
2022/06/22 04:19:19;;;;;;;8.85;7.30;;;;;;;13.20;94.24;101287.38;5075557;28;20027;-36
2022/06/22 04:21:50;;;;;;;11.07;7.30;;;;;;;13.26;95.03;101291.88;5076210;28;20036;-36
2022/06/22 04:24:30;;;;;;;9.77;6.43;;;;;;;13.30;94.98;101291.16;5075622;28;20032;-36
2022/06/22 04:27:14;;;;;;;9.93;7.40;;;;;;;13.42;94.20;101296.59;5076345;28;20406;-36
2022/06/22 04:29:46;;;;;;;10.82;7.85;;;;;;;13.32;95.16;101293.63;5075783;28;20463;-36
2022/06/22 04:32:20;;;;;;;10.60;6.97;;;;;;;13.47;94.83;101294.00;5075845;28;20440;-36
2022/06/22 04:34:51;;;;;;;10.77;7.90;;;;;;;13.56;94.51;101292.53;5075895;28;20032;-36
2022/06/22 04:37:44;;;;;;;10.35;7.75;;;;;;;13.59;94.70;101305.66;5075775;28;20032;-36
2022/06/22 04:40:32;;;;;;;9.98;8.00;;;;;;;13.63;95.26;101314.16;5075995;28;20052;-36
2022/06/22 04:43:00;;;;;;;10.35;8.80;;;;;;;13.79;95.05;101318.00;5075113;28;20036;-36
2022/06/22 04:45:33;;;;;;;11.32;8.68;;;;;;;13.80;95.16;101315.03;5075060;28;20111;-36
2022/06/22 04:48:05;;;;;;;11.07;7.95;;;;;;;13.80;94.67;101303.34;5075856;28;20032;-36
2022/06/22 04:50:31;;;;;;;10.15;8.23;;;;;;;14.01;95.26;101313.56;5075798;28;20070;-36
2022/06/22 04:52:59;;;;;;;;;;;;;;;14.15;93.01;101314.94;5075682;28;20373;-36
2022/06/22 04:55:26;;;;;;;;;;;;;;;14.24;92.15;101317.25;5075569;28;19912;-36
2022/06/22 04:57:54;;;;;;;;;;;;;;;14.28;91.19;101313.78;5074317;28;20008;-36
2022/06/22 05:00:23;;;;;;;10.00;7.95;;;;;;;14.17;93.01;101299.19;5074898;28;20272;-36
2022/06/22 05:02:55;;;;;;;10.43;7.15;;;;;;;14.33;91.68;101308.44;5076015;28;20350;-36
2022/06/22 05:05:23;;;;;;;10.30;8.82;;;;;;;14.38;93.12;101321.31;5075174;28;20154;-36
2022/06/22 05:07:51;;;;;;;14.73;8.18;;;;;;;14.54;92.46;101315.13;5075220;28;20103;-36
2022/06/22 05:10:47;;;;;;;11.20;8.18;;;;;;;14.59;90.73;101325.25;5074540;28;20032;-36
2022/06/22 05:13:19;;;;;;;8.60;7.47;;;;;;;14.70;91.81;101335.25;5075108;28;20032;-36
2022/06/22 05:15:48;;;;;;;9.98;7.60;;;;;;;14.81;90.73;101345.22;5075244;28;20157;-36
2022/06/22 05:18:47;;;;;;;8.80;7.85;;;;;;;14.88;90.23;101343.19;5074706;28;20133;-36
2022/06/22 05:21:19;;;;;;;11.68;8.40;;;;;;;14.85;91.18;101340.13;5052707;28;20060;-36
2022/06/22 05:23:50;;;;;;;12.02;8.50;;;;;;;14.89;90.50;101341.28;5052861;28;20068;-36
2022/06/22 05:26:18;;;;;;;11.52;7.88;;;;;;;15.02;90.93;101343.66;5052458;28;20084;-36
2022/06/22 05:28:50;;;;;;;9.02;8.00;;;;;;;15.01;90.35;101343.91;5052263;28;20040;-36
2022/06/22 05:31:23;;;;;;;11.13;8.40;;;;;;;15.07;90.16;101341.00;5052517;28;20044;-36
2022/06/22 05:33:55;;;;;;;10.05;8.13;;;;;;;15.14;89.38;101341.69;5052230;28;20120;-36
2022/06/22 05:36:25;;;;;;;14.05;8.27;;;;;;;15.28;88.34;101347.63;5052172;28;20517;-36
2022/06/22 05:38:56;;;;;;;8.70;7.78;;;;;;;15.46;88.58;101354.66;5052118;28;20486;-36
2022/06/22 05:41:29;;;;;;;9.50;7.45;;;;;;;15.49;87.86;101332.38;5052238;28;20025;-36
2022/06/22 05:43:57;;;;;;;9.23;7.78;;;;;;;15.56;86.76;101330.28;5052227;28;20501;-36
2022/06/22 05:46:23;;;;;;;8.43;7.47;;;;;;;15.70;86.50;101345.22;5052565;28;20086;-36
2022/06/22 05:48:49;;;;;;;;;;;;;;;15.89;86.69;101345.72;5035509;28;20135;-36
2022/06/22 05:51:25;;;;;;;13.45;8.05;;;;;;;15.90;87.02;101338.38;5052437;28;20058;-36
2022/06/22 05:54:00;;;;;;;8.38;6.80;;;;;;;15.93;85.15;101341.41;5051667;28;20041;-36
2022/06/22 05:56:40;;;;;;;13.20;8.70;;;;;;;15.93;86.63;101338.69;5059841;28;20110;-36
2022/06/22 05:59:36;;;;;;;9.82;7.90;;;;;;;16.02;86.82;101340.97;5074365;28;20045;-36
2022/06/22 06:02:10;;;;;;;11.23;7.35;;;;;;;16.10;84.96;101352.22;5074591;28;20111;-36
2022/06/22 06:04:49;;;;;;;11.95;8.40;;;;;;;16.13;86.21;101354.47;5073431;28;20024;-36
2022/06/22 06:07:47;;;;;;;10.27;6.78;;;;;;;16.30;85.93;101361.72;5074268;28;20042;-36
2022/06/22 06:10:33;;;;;;;9.93;7.50;;;;;;;16.42;84.72;101368.69;5072809;28;20465;-36
2022/06/22 06:13:15;;;;;;;9.95;7.22;;;;;;;16.47;84.06;101366.03;5073427;28;20028;-36
2022/06/22 06:15:40;;;;;;;8.45;6.95;;;;;;;16.45;83.13;101367.38;5073894;28;20107;-36
2022/06/22 06:18:07;;;;;;;;;;;;;;;16.58;83.98;101368.84;5074029;28;20028;-36
2022/06/22 06:20:40;;;;;;;10.82;7.43;;;;;;;16.65;83.23;101369.47;5073415;28;19908;-36
2022/06/22 06:23:40;;;;;;;8.60;6.47;;;;;;;16.76;82.91;101371.25;5073711;28;20035;-36
2022/06/22 06:29:18;;;;;;;8.60;6.90;;;;;;;16.90;81.78;101377.94;4972423;28;20046;-36
2022/06/22 06:32:01;;;;;;;14.20;7.47;;;;;;;16.94;81.61;101370.03;4972552;28;20053;-36
2022/06/22 06:34:42;;;;;;;13.27;7.88;;;;;;;16.94;80.53;101356.38;4972808;28;20057;-36
2022/06/22 06:37:46;;;;;;;10.95;7.35;;;;;;;17.08;81.04;101362.22;4972874;28;20501;-36
2022/06/22 06:40:17;;;;;;;9.68;7.32;;;;;;;17.15;80.98;101368.28;4972255;28;20538;-36
2022/06/22 06:42:55;;;;;;;13.40;8.25;;;;;;;17.18;81.23;101360.41;4972713;28;20114;-36
2022/06/22 06:45:23;;;;;;;15.82;8.18;;;;;;;17.25;80.73;101354.69;4972518;28;20046;-36
2022/06/22 06:48:03;;;;;;;9.52;6.88;;;;;;;17.19;79.48;101345.63;4972579;28;20039;-36
2022/06/22 06:50:39;;;;;;;10.90;7.55;;;;;;;17.30;79.28;101360.19;4972227;28;20528;-36
2022/06/22 06:53:25;;;;;;;9.48;7.57;;;;;;;17.35;79.61;101362.97;4972485;28;20046;-36
2022/06/22 06:55:57;;;;;;;13.05;7.55;;;;;;;17.33;78.43;101351.47;4972130;28;20109;-36
2022/06/22 06:58:31;;;;;;;11.02;7.97;;;;;;;17.38;79.30;101342.47;4972039;28;20189;-36
2022/06/22 07:00:57;;;;;;;11.55;7.50;;;;;;;17.50;79.46;101354.03;4971878;28;20043;-36
2022/06/22 07:03:25;;;;;;;;;;;;;;;17.64;79.58;101346.16;4972610;28;20049;-36
2022/06/22 07:05:51;;;;;;;9.65;7.72;;;;;;;17.62;78.15;101343.72;5034696;28;20316;-36
2022/06/22 07:08:25;;;;;;;10.27;6.60;;;;;;;17.70;79.51;101328.69;5073661;28;20135;-36
2022/06/22 07:10:56;;;;;;;9.45;7.68;;;;;;;17.84;79.93;101340.00;5072980;28;20032;-36
2022/06/22 07:13:31;;;;;;;7.68;6.93;;;;;;;17.94;78.93;101331.81;5072562;28;20029;-36
2022/06/22 07:16:01;;;;;;;10.57;7.43;;;;;;;17.92;78.44;101334.84;5073410;28;20346;-36
2022/06/22 07:18:42;;;;;;;9.48;7.22;;;;;;;17.99;78.58;101329.09;5072621;28;20060;-36
2022/06/22 07:21:32;;;;;;;8.60;7.72;;;;;;;18.15;78.70;101338.19;5071537;28;20029;-36
2022/06/22 07:24:12;;;;;;;10.25;7.95;;;;;;;18.22;77.60;101336.84;5072508;28;20071;-36
2022/06/22 07:26:43;;;;;;;10.18;7.45;;;;;;;18.24;77.72;101334.66;5072879;28;20032;-36
2022/06/22 07:29:22;;;;;;;11.88;7.90;;;;;;;18.17;78.10;101336.84;5073156;28;20039;-36
2022/06/22 07:31:54;;;;;;;9.27;8.18;;;;;;;18.00;76.82;101319.81;5072641;28;20036;-36
2022/06/22 07:34:27;;;;;;;9.63;7.97;;;;;;;18.23;76.80;101323.97;5072564;28;20115;-36
2022/06/22 07:37:03;;;;;;;9.20;7.43;;;;;;;18.30;75.93;101319.09;5072487;28;20024;-37
2022/06/22 07:39:42;;;;;;;10.13;7.05;;;;;;;18.32;75.26;101291.41;5072262;28;20040;-36
2022/06/22 07:42:12;;;;;;;10.60;7.03;;;;;;;18.44;75.87;101298.25;5073336;28;20090;-36
2022/06/22 07:44:38;;;;;;;9.50;7.60;;;;;;;18.46;76.49;101285.13;5072199;28;20032;-36
2022/06/22 07:47:05;;;;;;;8.55;7.65;;;;;;;18.52;76.32;101299.66;5072507;28;20033;-36
2022/06/22 07:49:51;;;;;;;9.88;7.53;;;;;;;18.60;76.75;101306.50;5073081;28;20033;-36
2022/06/22 07:52:21;;;;;;;10.23;6.72;;;;;;;18.60;76.29;101314.72;5073168;28;20403;-37
2022/06/22 07:55:02;;;;;;;10.00;6.82;;;;;;;18.64;75.92;101316.66;5072164;28;20032;-36
2022/06/22 07:57:39;;;;;;;9.18;7.70;;;;;;;18.57;74.07;101323.47;5072925;28;20032;-37
2022/06/22 08:00:10;;;;;;;9.00;6.43;;;;;;;18.49;74.45;101316.63;5070725;28;20084;-37
2022/06/22 08:02:47;;;;;;;8.07;6.70;;;;;;;18.61;74.94;101333.63;5071752;28;20035;-36
2022/06/22 08:05:16;;;;;;;8.82;7.05;;;;;;;18.64;74.28;101319.38;5071759;28;20025;-36
2022/06/22 08:07:50;;;;;;;8.63;6.65;;;;;;;18.68;74.90;101323.22;5073573;28;20424;-36
2022/06/22 08:10:33;;;;;;;11.30;7.00;;;;;;;18.75;75.27;101320.25;5072697;28;20033;-36
2022/06/22 08:13:22;;;;;;;9.02;6.47;;;;;;;18.89;74.44;101320.50;5072728;28;20032;-36
2022/06/22 08:16:12;;;;;;;8.45;6.40;;;;;;;18.93;73.39;101319.66;5072729;28;20429;-36
2022/06/22 08:18:38;;;;;;;8.30;6.20;;;;;;;19.01;72.58;101318.28;5072475;28;20131;-36
2022/06/22 08:21:05;;;;;;;8.20;5.88;;;;;;;19.14;71.57;101312.25;5071831;28;20037;-36
2022/06/22 08:23:34;;;;;;;7.70;4.97;;;;;;;19.25;69.47;101322.09;5072112;28;20048;-36
2022/06/22 08:26:05;;;;;;;7.75;4.70;;;;;;;19.28;67.65;101309.78;5072020;28;20483;-36
2022/06/22 08:28:34;;;;;;;7.35;3.85;;;;;;;19.48;64.99;101325.34;5072154;28;20024;-36
2022/06/22 08:31:00;;;;;;;10.68;3.80;;;;;;;19.61;65.08;101327.50;5072050;28;20025;-36
2022/06/22 08:33:28;;;;;;;4.72;3.78;;;;;;;19.79;63.94;101329.63;5074659;28;20047;-36
2022/06/22 08:36:10;;;;;;;8.23;3.80;;;;;;;19.74;65.71;101321.44;5075591;28;20043;-36
2022/06/22 08:38:46;;;;;;;7.85;3.80;;;;;;;19.77;62.92;101326.38;5076349;28;20039;-36
2022/06/22 08:41:29;;;;;;;6.38;3.80;;;;;;;20.00;64.47;101332.28;5075852;28;20020;-36
2022/06/22 08:44:02;;;;;;;10.60;4.03;;;;;;;20.08;63.63;101328.13;5075468;28;20020;-37
2022/06/22 08:46:57;;;;;;;7.55;3.33;;;;;;;20.23;62.24;101333.53;5075773;28;20472;-36
2022/06/22 08:49:35;;;;;;;4.35;2.53;;;;;;;20.23;59.18;101325.28;5075700;28;20480;-36
2022/06/22 08:52:05;;;;;;;7.57;2.30;;;;;;;20.52;60.78;101325.41;5075414;28;20047;-36
2022/06/22 08:54:53;;;;;;;6.03;2.47;;;;;;;20.63;59.29;101332.47;5075553;28;20029;-36
2022/06/22 08:57:30;;;;;;;7.95;2.38;;;;;;;20.65;58.00;101330.25;5075546;28;20032;-36
2022/06/22 09:00:01;;;;;;;2.83;2.10;;;;;;;20.77;58.24;101332.63;5075017;28;20041;-37
2022/06/22 09:02:54;;;;;;;3.60;2.10;;;;;;;20.83;56.11;101320.47;5075126;28;20028;-36
2022/06/22 09:05:37;;;;;;;4.25;2.20;;;;;;;21.04;57.46;101318.38;5074764;28;20092;-37
2022/06/22 09:08:36;;;;;;;4.00;2.00;;;;;;;21.28;57.66;101310.16;5075348;28;20066;-36
2022/06/22 09:11:16;;;;;;;9.60;2.60;;;;;;;21.38;55.95;101315.59;5075641;28;20116;-36
2022/06/22 09:13:57;;;;;;;7.03;2.75;;;;;;;21.33;55.41;101307.41;5075127;28;20427;-36
2022/06/22 09:16:44;;;;;;;4.60;2.10;;;;;;;21.46;56.42;101323.19;5074895;28;20127;-37
2022/06/22 09:19:22;;;;;;;;;;;;;;;21.68;55.56;101324.59;5075036;28;20035;-37
2022/06/22 09:21:50;;;;;;;7.78;2.28;;;;;;;21.83;55.47;101318.91;5075577;28;20269;-36
2022/06/22 09:24:32;;;;;;;4.15;1.83;;;;;;;21.71;52.58;101324.00;5074382;28;20024;-37
2022/06/22 09:27:17;;;;;;;5.03;1.58;;;;;;;21.87;53.71;101316.38;5074483;28;20029;-36
2022/06/22 09:29:51;;;;;;;4.65;1.70;;;;;;;22.15;53.20;101317.38;5074365;28;20036;-37
2022/06/22 09:32:23;;;;;;;5.63;2.00;;;;;;;22.19;53.52;101338.53;5074737;28;20055;-37
2022/06/22 09:35:02;;;;;;;3.25;1.67;;;;;;;22.35;50.75;101339.13;5074517;28;20071;-37
2022/06/22 09:38:05;;;;;;;6.20;2.08;;;;;;;22.42;51.21;101328.56;5074406;28;20123;-37
2022/06/22 09:41:10;;;;;;;3.92;2.22;;;;;;;22.34;50.83;101340.25;5074203;28;20078;-37
2022/06/22 09:43:54;;;;;;;5.35;2.20;;;;;;;22.42;50.73;101338.75;5069881;28;20409;-37
2022/06/22 09:46:29;;;;;;;6.40;1.90;;;;;;;22.68;50.88;101334.47;5074794;28;20120;-36
2022/06/22 09:49:00;;;;;;;2.65;1.67;;;;;;;22.68;50.55;101319.88;5074274;28;20024;-37
2022/06/22 09:51:47;;;;;;;5.80;2.00;;;;;;;22.77;49.04;101345.66;5074718;28;20440;-37
2022/06/22 09:57:49;;;;;;;5.13;1.88;;;;;;;22.96;49.36;101326.34;5074796;28;19937;-37
2022/06/22 10:00:33;;;;;;;5.47;1.90;;;;;;;23.08;48.73;101332.16;5074243;28;20127;-37
2022/06/22 10:03:14;;;;;;;4.15;2.17;;;;;;;23.18;47.73;101329.25;5074362;28;20037;-37
2022/06/22 10:06:30;;;;;;;4.20;1.70;;;;;;;23.13;47.53;101326.56;5074696;28;20381;-37
2022/06/22 10:09:14;;;;;;;6.05;1.90;;;;;;;23.27;49.91;101326.59;5052075;28;20036;-37
2022/06/22 10:11:54;;;;;;;4.82;1.63;;;;;;;23.44;46.33;101320.50;5051550;28;20068;-36
2022/06/22 10:14:53;;;;;;;5.20;1.77;;;;;;;23.72;47.68;101321.31;5052146;28;20132;-37
2022/06/22 10:17:27;;;;;;;4.00;1.60;;;;;;;23.92;45.54;101325.63;5052063;28;20052;-36
2022/06/22 10:20:04;;;;;;;3.50;1.52;;;;;;;23.95;45.87;101303.69;5051331;28;20029;-37
2022/06/22 10:22:37;;;;;;;3.97;1.80;;;;;;;23.96;47.43;101312.78;5051280;28;20033;-37
2022/06/22 10:25:28;;;;;;;5.60;1.80;;;;;;;24.00;45.98;101316.56;5051705;28;20068;-36
2022/06/22 10:27:59;;;;;;;4.03;1.40;;;;;;;23.98;45.94;101310.56;5051632;28;20114;-37
2022/06/22 10:30:39;;;;;;;5.35;1.90;;;;;;;23.58;44.17;101290.94;5051628;28;20104;-37
2022/06/22 10:33:15;;;;;;;3.47;1.45;;;;;;;24.02;46.27;101298.56;5051578;28;20029;-37
2022/06/22 10:36:15;;;;;;;2.67;1.20;;;;;;;24.00;43.17;101294.47;5051018;28;20052;-36
2022/06/22 10:39:17;;;;;;;6.90;1.60;;;;;;;23.99;43.01;101296.41;5050941;28;20493;-37
2022/06/22 10:45:15;;;;;;;3.05;1.23;;;;;;;23.90;42.16;101293.56;5069024;28;20075;-37
2022/06/22 10:47:51;;;;;;;2.58;1.33;;;;;;;23.78;41.44;101271.22;5074025;28;20090;-36
2022/06/22 10:50:54;;;;;;;7.80;1.48;;;;;;;24.12;43.58;101284.53;5073795;28;20128;-36
2022/06/22 10:53:48;;;;;;;4.88;1.42;;;;;;;24.41;43.18;101280.56;5073944;28;20021;-36
2022/06/22 10:56:28;;;;;;;5.70;1.67;;;;;;;24.15;41.86;101288.59;5072936;28;20527;-36
2022/06/22 10:59:31;;;;;;;3.10;1.55;;;;;;;24.28;42.70;101282.22;5072861;28;20038;-36
2022/06/22 11:02:05;;;;;;;3.95;1.33;;;;;;;24.50;43.55;101286.13;5073072;28;20025;-36
2022/06/22 11:04:59;;;;;;;4.38;1.60;;;;;;;24.53;40.66;101291.06;5072869;28;20078;-36
2022/06/22 11:07:49;;;;;;;3.03;1.40;;;;;;;24.89;41.17;101283.50;5073243;28;20032;-36
2022/06/22 11:10:36;;;;;;;3.78;1.50;;;;;;;24.91;39.00;101280.41;5072581;28;20054;-36
2022/06/22 11:13:20;;;;;;;4.22;1.23;;;;;;;25.07;40.77;101278.88;5073001;28;20028;-36
2022/06/22 11:15:51;;;;;;;4.25;1.10;;;;;;;24.95;39.17;101284.16;5073181;28;20028;-36
2022/06/22 11:18:16;;;;;;;3.63;1.20;;;;;;;24.90;38.89;101287.06;5072514;28;20111;-36
2022/06/22 11:21:12;;;;;;;4.07;1.27;;;;;;;24.97;39.37;101292.13;5073079;28;20067;-36
2022/06/22 11:23:59;;;;;;;3.83;1.10;;;;;;;25.36;39.05;101280.31;5072708;28;20668;-36
2022/06/22 11:33:29;;;;;;;2.80;1.08;;;;;;;25.65;37.33;101277.78;5073251;28;20102;-36
2022/06/22 11:36:02;;;;;;;2.75;0.98;;;;;;;25.70;36.31;101274.03;5073023;28;20436;-36
2022/06/22 11:38:45;;;;;;;3.92;1.08;;;;;;;25.53;34.79;101271.25;5073208;28;20033;-36
2022/06/22 11:41:32;;;;;;;3.75;1.25;;;;;;;25.90;37.32;101279.00;5072970;28;20384;-36
2022/06/22 11:44:16;;;;;;;3.42;1.17;;;;;;;25.67;35.71;101258.09;5073154;28;20093;-36
2022/06/22 11:46:56;;;;;;;2.58;0.90;;;;;;;25.88;35.04;101295.13;5072916;28;20052;-36
2022/06/22 11:49:34;;;;;;;3.17;1.15;;;;;;;25.75;35.83;101282.22;5073283;28;20048;-36
2022/06/22 11:52:28;;;;;;;5.95;1.35;;;;;;;25.86;35.75;101297.41;5072912;28;20049;-36
2022/06/22 11:55:35;;;;;;;4.85;1.40;;;;;;;25.65;36.42;101285.28;5073027;28;20029;-36
2022/06/22 11:58:37;;;;;;;3.63;1.05;;;;;;;25.87;34.76;101284.38;5073113;28;20020;-36
2022/06/22 12:01:18;;;;;;;2.45;0.70;;;;;;;25.72;34.25;101274.56;5072836;28;20045;-36
2022/06/22 12:04:17;;;;;;;2.40;0.90;;;;;;;25.81;34.85;101280.94;5072908;28;20033;-36
2022/06/22 12:07:08;;;;;;;3.10;1.00;;;;;;;26.05;33.33;101277.69;5072466;28;20170;-36
2022/06/22 12:09:48;;;;;;;3.25;1.02;;;;;;;26.03;32.74;101277.22;5053926;28;20041;-36
2022/06/22 12:12:46;;;;;;;2.78;1.00;;;;;;;26.23;33.96;101275.75;5054257;28;20045;-36
2022/06/22 12:16:02;;;;;;;3.63;1.05;;;;;;;26.09;32.20;101275.09;5054071;28;20118;-36
2022/06/22 12:19:00;;;;;;;3.55;1.08;;;;;;;26.27;33.26;101264.84;4975244;28;20046;-36
2022/06/22 12:21:47;;;;;;;4.25;0.95;;;;;;;26.44;30.82;101265.66;4975549;28;20050;-37
2022/06/22 12:24:33;;;;;;;3.35;1.42;;;;;;;26.68;32.30;101256.81;4975363;28;20030;-36
2022/06/22 12:27:20;;;;;;;2.90;0.88;;;;;;;26.67;31.27;101259.91;4975496;28;20047;-36
2022/06/22 12:30:04;;;;;;;4.03;1.45;;;;;;;26.53;34.09;101254.56;4975359;28;20045;-37
2022/06/22 12:32:36;;;;;;;3.63;0.75;;;;;;;26.49;32.18;101242.50;4974816;28;20104;-37
2022/06/22 12:35:29;;;;;;;4.18;1.02;;;;;;;26.67;33.33;101237.72;4974896;28;20090;-36
2022/06/22 12:38:00;;;;;;;2.67;1.23;;;;;;;26.65;31.89;101228.94;4974575;28;20031;-36